Time;durP1;ratioP1;P1;durP2;ratioP2;P2;SDS_P1;SDS_P2;PMS_P1;PMS_P2;Temp;Humidity;BMP_temperature;BMP_pressure;BME280_temperature;BME280_humidity;BME280_pressure;Samples;Min_cycle;Max_cycle;Signal;HPM_P1;HPM_P2
2022/04/14 00:00:21;;;;;;;12.02;7.68;;;7.30;99.90;;;;;;5045754;28;20079;-49
2022/04/14 00:02:46;;;;;;;11.27;6.25;;;7.10;99.90;;;;;;5036847;28;20029;-48
2022/04/14 00:05:12;;;;;;;10.43;6.30;;;7.10;99.90;;;;;;5049448;28;20135;-48
2022/04/14 00:07:39;;;;;;;12.20;6.30;;;7.50;99.90;;;;;;5043174;28;20029;-48
2022/04/14 00:10:05;;;;;;;20.25;10.15;;;8.00;99.90;;;;;;5048368;28;20071;-48
2022/04/14 00:12:31;;;;;;;27.65;13.45;;;8.40;99.90;;;;;;5039702;28;20090;-48
2022/04/14 00:14:57;;;;;;;19.42;10.40;;;8.60;99.90;;;;;;5049287;28;20433;-48
2022/04/14 00:17:23;;;;;;;17.45;10.18;;;8.80;99.90;;;;;;5041752;28;20056;-49
2022/04/14 00:19:49;;;;;;;24.00;12.57;;;8.90;99.90;;;;;;5047245;28;20388;-47
2022/04/14 00:22:15;;;;;;;20.88;11.95;;;9.00;99.90;;;;;;5033813;28;20032;-48
2022/04/14 00:24:41;;;;;;;18.70;11.93;;;9.00;99.90;;;;;;5039691;28;20029;-49
2022/04/14 00:27:07;;;;;;;14.00;7.80;;;9.20;99.90;;;;;;5034053;28;20056;-48
2022/04/14 00:29:33;;;;;;;21.35;13.18;;;9.30;99.90;;;;;;5048387;28;20077;-49
2022/04/14 00:31:58;;;;;;;17.65;10.88;;;9.30;99.90;;;;;;5043785;28;20026;-48
2022/04/14 00:34:24;;;;;;;13.98;9.88;;;9.30;99.90;;;;;;5046587;28;20021;-48
2022/04/14 00:36:50;;;;;;;15.73;9.75;;;9.40;99.90;;;;;;5056677;28;20478;-49
2022/04/14 00:39:16;;;;;;;17.83;11.10;;;9.40;99.90;;;;;;5041073;28;20036;-47
2022/04/14 00:41:43;;;;;;;10.65;7.63;;;9.50;99.90;;;;;;5023955;28;20064;-49
2022/04/14 00:44:08;;;;;;;12.23;7.80;;;9.60;99.90;;;;;;5051189;28;20029;-48
2022/04/14 00:46:34;;;;;;;12.77;7.25;;;9.70;99.90;;;;;;5043500;28;20034;-48
2022/04/14 00:49:00;;;;;;;11.95;7.00;;;9.90;99.90;;;;;;5023210;28;20095;-48
2022/04/14 00:51:26;;;;;;;19.95;9.95;;;9.90;99.90;;;;;;5031657;28;20167;-49
2022/04/14 00:53:52;;;;;;;24.70;14.23;;;9.80;99.90;;;;;;5043974;28;20562;-49
2022/04/14 00:56:18;;;;;;;16.83;9.27;;;9.80;99.90;;;;;;5040796;28;20028;-48
2022/04/14 00:58:44;;;;;;;18.98;8.43;;;9.80;99.90;;;;;;5043174;28;20021;-50
2022/04/14 01:01:12;;;;;;;15.57;8.77;;;9.80;99.90;;;;;;5039089;28;20030;-48
2022/04/14 01:03:38;;;;;;;14.77;8.70;;;9.80;99.90;;;;;;5053079;28;20045;-48
2022/04/14 01:06:04;;;;;;;16.20;9.65;;;9.80;99.90;;;;;;5022899;28;20370;-50
2022/04/14 01:08:32;;;;;;;19.80;10.30;;;9.70;99.90;;;;;;5038555;28;20495;-50
2022/04/14 01:10:59;;;;;;;14.02;8.90;;;9.80;99.90;;;;;;5046089;28;20033;-49
2022/04/14 01:13:25;;;;;;;16.27;9.85;;;9.80;99.90;;;;;;5049943;28;20021;-49
2022/04/14 01:15:58;;;;;;;18.85;10.52;;;9.80;99.90;;;;;;5047732;28;20040;-50
2022/04/14 01:18:24;;;;;;;20.00;9.75;;;9.90;99.90;;;;;;5049218;28;20120;-50
2022/04/14 01:20:50;;;;;;;20.48;10.60;;;9.80;99.90;;;;;;5043274;28;20041;-49
2022/04/14 01:23:20;;;;;;;19.40;10.05;;;9.80;99.90;;;;;;5047137;28;20041;-51
2022/04/14 01:25:46;;;;;;;20.58;10.57;;;9.70;99.90;;;;;;5047010;28;20034;-50
2022/04/14 01:28:12;;;;;;;21.77;10.82;;;9.80;99.90;;;;;;5045873;28;20033;-49
2022/04/14 01:30:38;;;;;;;18.35;10.45;;;9.70;99.90;;;;;;5048386;28;20469;-49
2022/04/14 01:33:04;;;;;;;13.63;8.70;;;9.70;99.90;;;;;;5051520;28;20365;-50
2022/04/14 01:35:29;;;;;;;14.55;8.93;;;9.70;99.90;;;;;;5045319;28;20485;-50
2022/04/14 01:37:55;;;;;;;15.10;9.13;;;9.60;99.90;;;;;;5048832;28;20033;-51
2022/04/14 01:40:21;;;;;;;14.70;8.82;;;9.60;99.90;;;;;;5035398;28;20044;-51
2022/04/14 01:42:47;;;;;;;17.42;8.90;;;9.60;99.90;;;;;;5045827;28;20056;-49
2022/04/14 01:45:13;;;;;;;17.38;10.48;;;9.60;99.90;;;;;;5043467;28;20045;-48
2022/04/14 01:47:44;;;;;;;15.25;9.32;;;9.70;99.90;;;;;;5050767;28;20029;-50
2022/04/14 01:50:12;;;;;;;15.80;9.50;;;9.60;99.90;;;;;;5046243;28;20396;-50
2022/04/14 01:52:39;;;;;;;19.45;9.60;;;9.60;99.90;;;;;;5044027;28;20036;-49
2022/04/14 01:55:06;;;;;;;19.23;8.50;;;9.50;99.90;;;;;;5045778;28;20029;-50
2022/04/14 01:57:32;;;;;;;14.20;7.38;;;9.40;99.90;;;;;;5049846;28;20029;-50
2022/04/14 01:59:59;;;;;;;10.65;5.93;;;9.30;99.90;;;;;;5029760;28;20517;-48
2022/04/14 02:02:25;;;;;;;7.60;5.80;;;9.00;99.90;;;;;;5045974;28;20052;-50
2022/04/14 02:04:51;;;;;;;8.15;5.75;;;8.60;99.90;;;;;;5056305;28;20088;-47
2022/04/14 02:07:19;;;;;;;20.25;13.13;;;8.20;99.90;;;;;;5050009;28;20495;-48
2022/04/14 02:09:45;;;;;;;11.38;8.23;;;8.00;99.90;;;;;;5044935;28;20049;-48
2022/04/14 02:12:12;;;;;;;12.15;5.72;;;8.20;99.90;;;;;;5051054;28;20051;-49
2022/04/14 02:14:39;;;;;;;9.23;6.72;;;8.00;99.90;;;;;;5052432;28;20500;-49
2022/04/14 02:17:05;;;;;;;11.30;6.28;;;7.90;99.90;;;;;;5045973;28;20041;-48
2022/04/14 02:19:31;;;;;;;8.70;6.07;;;7.70;99.90;;;;;;5048259;28;20034;-48
2022/04/14 02:21:58;;;;;;;9.85;6.75;;;7.60;99.90;;;;;;5048285;28;20041;-49
2022/04/14 02:24:27;;;;;;;11.13;6.55;;;7.50;99.90;;;;;;5041043;28;20041;-49
2022/04/14 02:26:53;;;;;;;13.45;6.28;;;7.50;99.90;;;;;;5044137;28;20037;-50
2022/04/14 02:29:19;;;;;;;9.10;5.72;;;7.50;99.90;;;;;;5051697;28;20052;-48
2022/04/14 02:31:46;;;;;;;11.13;6.50;;;7.40;99.90;;;;;;5043682;28;20457;-49
2022/04/14 02:34:12;;;;;;;9.10;6.35;;;7.30;99.90;;;;;;5068604;28;20048;-48
2022/04/14 02:36:38;;;;;;;9.30;5.90;;;7.20;99.90;;;;;;5048724;28;20048;-48
2022/04/14 02:39:04;;;;;;;8.32;5.75;;;6.90;99.90;;;;;;5059511;28;20033;-49
2022/04/14 02:41:30;;;;;;;9.63;5.93;;;6.50;99.90;;;;;;5048952;28;20492;-48
2022/04/14 02:43:56;;;;;;;11.90;6.55;;;6.40;99.90;;;;;;5049031;28;20072;-48
2022/04/14 02:46:21;;;;;;;8.63;6.50;;;6.20;99.90;;;;;;5046236;28;20147;-48
2022/04/14 02:48:47;;;;;;;11.05;5.80;;;6.30;99.90;;;;;;5048833;28;20469;-49
2022/04/14 02:51:13;;;;;;;6.55;5.50;;;6.50;99.90;;;;;;5043235;28;20488;-49
2022/04/14 02:53:39;;;;;;;8.85;6.38;;;6.60;99.90;;;;;;5049039;28;20029;-48
2022/04/14 02:56:09;;;;;;;8.80;5.38;;;6.60;99.90;;;;;;5049942;28;20033;-48
2022/04/14 02:58:37;;;;;;;7.13;5.95;;;6.90;99.90;;;;;;5040648;28;20033;-49
2022/04/14 03:01:03;;;;;;;10.05;5.78;;;7.00;99.90;;;;;;5046326;28;20102;-49
2022/04/14 03:03:29;;;;;;;8.32;6.18;;;7.30;99.90;;;;;;5045203;28;20056;-50
2022/04/14 03:05:54;;;;;;;16.25;7.20;;;7.60;99.90;;;;;;5041327;28;20369;-49
2022/04/14 03:08:20;;;;;;;15.35;6.95;;;7.80;99.90;;;;;;5043732;28;20049;-48
2022/04/14 03:10:46;;;;;;;21.02;8.07;;;7.90;99.90;;;;;;5021628;28;20037;-50
2022/04/14 03:13:12;;;;;;;16.38;10.30;;;8.10;99.90;;;;;;5068379;28;20045;-50
2022/04/14 03:15:38;;;;;;;12.20;8.18;;;8.20;99.90;;;;;;5052457;28;20033;-54
2022/04/14 03:18:05;;;;;;;9.75;5.75;;;8.30;99.90;;;;;;5045772;28;20025;-49
2022/04/14 03:20:31;;;;;;;8.07;5.63;;;8.30;99.90;;;;;;5047385;28;20048;-50
2022/04/14 03:22:57;;;;;;;11.45;6.60;;;8.20;99.90;;;;;;5041287;28;20026;-48
2022/04/14 03:25:23;;;;;;;10.57;6.97;;;8.20;99.90;;;;;;5054043;28;20449;-48
2022/04/14 03:27:49;;;;;;;9.52;6.95;;;8.20;99.90;;;;;;5041791;28;20038;-48
2022/04/14 03:30:15;;;;;;;11.35;6.35;;;8.30;99.90;;;;;;5045809;28;20538;-48
2022/04/14 03:32:45;;;;;;;12.65;7.03;;;8.30;99.90;;;;;;5041288;28;20033;-49
2022/04/14 03:35:12;;;;;;;27.08;10.38;;;8.20;99.90;;;;;;5044596;28;20037;-49
2022/04/14 03:37:39;;;;;;;12.93;7.38;;;8.30;99.90;;;;;;5044577;28;20033;-48
2022/04/14 03:40:06;;;;;;;17.63;9.13;;;8.30;99.90;;;;;;5023421;28;20436;-49
2022/04/14 03:42:32;;;;;;;25.88;9.98;;;8.20;99.90;;;;;;5044652;28;20052;-49
2022/04/14 03:44:58;;;;;;;30.58;9.23;;;8.30;99.90;;;;;;5047746;28;20558;-49
2022/04/14 03:47:25;;;;;;;31.05;10.20;;;8.30;99.90;;;;;;5043718;28;20783;-50
2022/04/14 03:49:51;;;;;;;13.43;7.82;;;8.30;99.90;;;;;;5042553;28;20132;-49
2022/04/14 03:52:17;;;;;;;12.10;7.90;;;8.40;99.90;;;;;;5048676;28;20152;-48
2022/04/14 03:54:44;;;;;;;13.18;7.05;;;8.40;99.90;;;;;;5048059;28;20583;-48
2022/04/14 03:57:10;;;;;;;16.02;7.55;;;8.40;99.90;;;;;;5047908;28;20461;-48
2022/04/14 03:59:36;;;;;;;10.05;7.00;;;8.50;99.90;;;;;;5055432;28;20128;-48
2022/04/14 04:02:02;;;;;;;13.93;7.80;;;8.40;99.90;;;;;;5044398;28;20506;-48
2022/04/14 04:04:28;;;;;;;12.77;7.13;;;8.30;99.90;;;;;;5043298;28;20042;-48
2022/04/14 04:06:54;;;;;;;10.30;7.63;;;8.30;99.90;;;;;;5049622;28;20495;-48
2022/04/14 04:09:20;;;;;;;14.40;7.38;;;8.30;99.90;;;;;;5044450;28;20373;-48
2022/04/14 04:11:46;;;;;;;13.80;6.82;;;8.40;99.90;;;;;;5046801;28;20530;-48
2022/04/14 04:14:12;;;;;;;12.55;7.05;;;8.50;99.90;;;;;;5047947;28;20108;-49
2022/04/14 04:16:37;;;;;;;15.77;7.55;;;8.50;99.90;;;;;;5048725;28;20036;-49
2022/04/14 04:19:03;;;;;;;11.30;8.38;;;8.50;99.90;;;;;;5044502;28;20512;-48
2022/04/14 04:21:30;;;;;;;17.05;7.70;;;8.50;99.90;;;;;;5048724;28;20464;-49
2022/04/14 04:23:56;;;;;;;15.05;7.45;;;8.60;99.90;;;;;;5047440;28;20534;-49
2022/04/14 04:26:22;;;;;;;16.38;7.57;;;8.60;99.90;;;;;;5047038;28;20076;-48
2022/04/14 04:28:47;;;;;;;38.45;10.75;;;8.60;99.90;;;;;;5048949;28;20048;-51
2022/04/14 04:31:13;;;;;;;20.65;8.68;;;8.70;99.90;;;;;;5048197;28;20087;-49
2022/04/14 04:33:39;;;;;;;22.27;9.10;;;8.70;99.90;;;;;;5042857;28;20469;-49
2022/04/14 04:36:07;;;;;;;25.63;9.05;;;8.70;99.90;;;;;;5039855;28;20055;-49
2022/04/14 04:38:33;;;;;;;20.02;8.57;;;8.70;99.90;;;;;;5058433;28;20046;-53
2022/04/14 04:40:59;;;;;;;22.63;8.65;;;8.80;99.90;;;;;;5047252;28;20032;-49
2022/04/14 04:43:25;;;;;;;22.50;10.05;;;8.80;99.90;;;;;;5046443;28;20119;-48
2022/04/14 04:45:51;;;;;;;23.63;9.30;;;8.90;99.90;;;;;;5039135;28;20029;-47
2022/04/14 04:48:17;;;;;;;15.70;8.13;;;9.00;99.90;;;;;;5039560;28;20044;-49
2022/04/14 04:50:46;;;;;;;13.60;7.95;;;9.00;99.90;;;;;;5046223;28;20091;-49
2022/04/14 04:53:12;;;;;;;19.85;8.57;;;9.00;99.90;;;;;;5061733;28;20069;-49
2022/04/14 04:55:38;;;;;;;30.38;9.65;;;9.00;99.90;;;;;;5045767;28;20067;-52
2022/04/14 04:58:04;;;;;;;17.17;6.82;;;9.10;99.90;;;;;;5043461;28;20465;-51
2022/04/14 05:00:30;;;;;;;15.77;6.63;;;9.20;99.90;;;;;;5034403;28;20033;-44
2022/04/14 05:02:56;;;;;;;9.77;6.53;;;9.20;99.90;;;;;;5040584;28;20059;-53
2022/04/14 05:05:23;;;;;;;13.90;7.03;;;9.30;99.90;;;;;;5040884;28;20485;-47
2022/04/14 05:07:50;;;;;;;11.90;7.20;;;9.40;99.90;;;;;;5050509;28;20029;-47
2022/04/14 05:10:17;;;;;;;18.88;7.05;;;9.50;99.90;;;;;;5045761;28;20481;-47
2022/04/14 05:12:43;;;;;;;13.80;7.60;;;9.50;99.90;;;;;;5048289;28;20078;-47
2022/04/14 05:15:09;;;;;;;12.93;7.82;;;9.60;99.90;;;;;;5034481;28;20592;-48
2022/04/14 05:17:34;;;;;;;15.48;8.35;;;9.70;99.90;;;;;;5028336;28;20037;-49
2022/04/14 05:20:00;;;;;;;16.83;8.30;;;9.80;99.90;;;;;;5043131;28;20084;-46
2022/04/14 05:22:26;;;;;;;19.48;9.98;;;9.80;99.90;;;;;;5046790;28;20493;-47
2022/04/14 05:24:52;;;;;;;19.33;9.82;;;9.90;99.90;;;;;;5029874;28;20505;-47
2022/04/14 05:27:17;;;;;;;14.63;8.07;;;9.90;99.90;;;;;;5037220;28;20029;-46
2022/04/14 05:29:43;;;;;;;25.30;9.45;;;9.80;99.90;;;;;;5047373;28;20038;-46
2022/04/14 05:32:09;;;;;;;23.73;12.98;;;9.90;99.90;;;;;;5046838;28;20049;-46
2022/04/14 05:34:35;;;;;;;30.70;17.00;;;9.80;99.90;;;;;;5047702;28;20036;-47
2022/04/14 05:37:01;;;;;;;30.48;18.35;;;9.70;99.90;;;;;;5047725;28;20144;-48
2022/04/14 05:39:26;;;;;;;23.85;16.73;;;9.60;99.90;;;;;;5051180;28;20037;-47
2022/04/14 05:41:52;;;;;;;25.05;15.20;;;9.80;99.90;;;;;;5047377;28;20066;-47
2022/04/14 05:44:19;;;;;;;22.80;15.05;;;10.00;99.90;;;;;;5043841;28;20040;-46
2022/04/14 05:46:44;;;;;;;25.08;15.80;;;9.80;99.90;;;;;;5035828;28;20044;-47
2022/04/14 05:49:10;;;;;;;20.02;13.25;;;10.00;99.90;;;;;;5047876;28;20045;-48
2022/04/14 05:51:36;;;;;;;21.25;13.60;;;9.80;99.90;;;;;;5035959;28;20048;-48
2022/04/14 05:54:02;;;;;;;20.42;12.60;;;9.80;99.90;;;;;;5036331;28;20025;-47
2022/04/14 05:56:28;;;;;;;19.75;13.65;;;9.80;99.90;;;;;;5042651;28;20050;-47
2022/04/14 05:58:54;;;;;;;21.88;13.98;;;;;;;;;;5040924;28;20091;-47
2022/04/14 06:01:20;;;;;;;24.95;15.15;;;10.70;99.90;;;;;;5048192;28;20029;-48
2022/04/14 06:03:45;;;;;;;26.85;15.40;;;10.70;99.90;;;;;;5045760;28;20029;-48
2022/04/14 06:06:13;;;;;;;28.73;16.63;;;10.90;99.90;;;;;;5044392;28;20469;-49
2022/04/14 06:08:40;;;;;;;21.00;15.43;;;11.00;99.90;;;;;;5055887;28;20076;-47
2022/04/14 06:11:06;;;;;;;24.08;17.35;;;11.30;99.90;;;;;;5042457;28;20033;-48
2022/04/14 06:13:35;;;;;;;34.35;18.63;;;11.20;99.90;;;;;;5044553;28;20421;-49
2022/04/14 06:16:01;;;;;;;30.35;19.02;;;11.20;99.90;;;;;;5045052;28;20068;-49
2022/04/14 06:18:27;;;;;;;27.45;19.10;;;11.50;99.90;;;;;;5045311;28;20041;-48
2022/04/14 06:20:54;;;;;;;28.50;19.95;;;11.40;99.90;;;;;;5044485;28;20059;-48
2022/04/14 06:23:20;;;;;;;33.70;20.13;;;11.60;99.90;;;;;;5035281;28;20470;-48
2022/04/14 06:25:49;;;;;;;31.58;22.52;;;11.80;99.90;;;;;;5035648;28;20116;-47
2022/04/14 06:28:18;;;;;;;29.52;20.90;;;12.00;99.90;;;;;;5035966;28;20056;-47
2022/04/14 06:30:50;;;;;;;32.85;21.92;;;12.00;99.90;;;;;;5041098;28;20040;-47
2022/04/14 06:33:16;;;;;;;30.90;20.77;;;12.10;99.90;;;;;;5054852;28;20064;-49
2022/04/14 06:35:42;;;;;;;35.30;23.45;;;12.10;99.90;;;;;;5054349;28;20048;-48
2022/04/14 06:38:08;;;;;;;30.25;22.02;;;12.20;99.90;;;;;;5054134;28;20119;-48
2022/04/14 06:40:35;;;;;;;36.30;24.17;;;12.50;99.90;;;;;;5054180;28;20120;-47
2022/04/14 06:43:01;;;;;;;34.92;25.15;;;12.50;99.90;;;;;;5055492;28;20354;-48
2022/04/14 06:45:27;;;;;;;29.80;22.10;;;12.60;99.90;;;;;;5055415;28;20086;-48
2022/04/14 06:47:53;;;;;;;41.60;24.90;;;;;;;;;;5053465;28;20064;-47
2022/04/14 06:50:19;;;;;;;35.88;24.63;;;13.10;99.90;;;;;;5055085;28;20032;-48
2022/04/14 06:52:45;;;;;;;32.00;23.58;;;13.30;99.90;;;;;;5054330;28;20603;-51
2022/04/14 06:55:11;;;;;;;33.67;22.65;;;13.70;99.90;;;;;;5036068;28;20482;-49
2022/04/14 06:57:37;;;;;;;35.47;23.20;;;13.60;99.90;;;;;;5054099;28;20040;-47
2022/04/14 07:00:04;;;;;;;30.27;23.15;;;13.50;99.90;;;;;;5054926;28;20036;-46
2022/04/14 07:02:31;;;;;;;39.65;24.45;;;13.80;99.90;;;;;;5019934;28;20041;-49
2022/04/14 07:04:59;;;;;;;34.40;22.65;;;14.10;99.90;;;;;;5036549;28;20037;-47
2022/04/14 07:07:25;;;;;;;34.33;24.67;;;14.30;99.90;;;;;;5055004;28;20064;-46
2022/04/14 07:09:50;;;;;;;30.08;22.27;;;14.40;99.90;;;;;;5054342;28;20080;-49
2022/04/14 07:12:16;;;;;;;35.88;24.85;;;14.60;99.90;;;;;;5054589;28;20487;-48
2022/04/14 07:14:42;;;;;;;28.60;20.25;;;;;;;;;;5054750;28;20036;-49
2022/04/14 07:17:10;;;;;;;33.67;21.70;;;;;;;;;;5054644;28;20362;-46
2022/04/14 07:19:36;;;;;;;31.58;20.40;;;;;;;;;;5054621;28;20033;-49
2022/04/14 07:22:02;;;;;;;25.00;19.15;;;;;;;;;;5054744;28;20044;-49
2022/04/14 07:24:28;;;;;;;27.42;18.92;;;;;;;;;;5053451;28;20036;-47
2022/04/14 07:26:54;;;;;;;28.80;18.48;;;;;;;;;;5068749;28;20099;-49
2022/04/14 07:29:20;;;;;;;29.67;19.30;;;;;;;;;;5054242;28;20035;-46
2022/04/14 07:31:47;;;;;;;28.58;17.58;;;;;;;;;;5053050;28;20028;-47
2022/04/14 07:34:14;;;;;;;26.10;19.13;;;;;;;;;;5053786;28;20029;-47
2022/04/14 07:36:40;;;;;;;27.95;17.63;;;;;;;;;;5053774;28;20049;-49
2022/04/14 07:39:08;;;;;;;22.98;16.27;;;;;;;;;;5053687;28;20029;-46
2022/04/14 07:41:35;;;;;;;19.85;13.93;;;;;;;;;;5054374;28;20041;-50
2022/04/14 07:44:01;;;;;;;20.30;14.27;;;;;;;;;;5053648;28;20044;-49
2022/04/14 07:46:27;;;;;;;17.67;13.70;;;;;;;;;;5054319;28;20037;-49
2022/04/14 07:48:53;;;;;;;21.50;15.20;;;;;;;;;;5054091;28;20048;-48
2022/04/14 07:51:19;;;;;;;25.23;16.83;;;;;;;;;;5054161;28;20021;-48
2022/04/14 07:53:46;;;;;;;24.33;16.65;;;;;;;;;;5052908;28;20152;-50
2022/04/14 07:56:15;;;;;;;19.30;15.00;;;17.50;95.40;;;;;;5040883;28;20053;-48
2022/04/14 07:58:43;;;;;;;23.60;13.98;;;17.50;93.80;;;;;;5051000;28;20445;-46
2022/04/14 08:01:09;;;;;;;19.27;14.95;;;17.80;92.50;;;;;;5053516;28;20064;-47
2022/04/14 08:18:58;;;;;;;12.95;7.80;;;;;;;;;;5061981;28;20395;-49
2022/04/14 08:21:24;;;;;;;9.75;7.43;;;;;;;;;;5036770;28;20476;-47
2022/04/14 08:23:52;;;;;;;9.85;7.05;;;;;;;;;;5051932;28;20038;-47
2022/04/14 08:26:18;;;;;;;8.82;6.78;;;;;;;;;;5042771;28;20037;-48
2022/04/14 08:28:45;;;;;;;11.68;7.57;;;19.50;99.90;;;;;;5059048;28;20036;-48
2022/04/14 08:31:12;;;;;;;12.25;6.78;;;;;;;;;;5038015;28;20029;-47
2022/04/14 08:33:38;;;;;;;11.27;5.97;;;19.70;82.50;;;;;;5059984;28;20037;-48
2022/04/14 08:36:07;;;;;;;8.98;5.20;;;19.80;92.10;;;;;;5046179;28;20454;-45
2022/04/14 08:38:33;;;;;;;6.50;4.85;;;20.10;80.20;;;;;;5040971;28;20624;-45
2022/04/14 08:41:04;;;;;;;7.78;5.40;;;20.10;76.80;;;;;;5054675;28;20045;-45
2022/04/14 08:43:35;;;;;;;8.98;4.70;;;20.10;79.20;;;;;;5043536;28;20040;-44
2022/04/14 08:46:02;;;;;;;8.45;4.97;;;20.20;76.00;;;;;;5043308;28;20025;-45
2022/04/14 08:48:28;;;;;;;6.85;4.57;;;20.50;76.30;;;;;;5042922;28;20469;-47
2022/04/14 08:50:55;;;;;;;5.60;4.50;;;20.60;76.40;;;;;;5043180;28;20025;-44
2022/04/14 08:53:26;;;;;;;4.70;3.95;;;20.50;76.30;;;;;;5045145;28;20017;-46
2022/04/14 08:55:53;;;;;;;5.53;4.03;;;20.40;72.50;;;;;;5041756;28;20026;-44
2022/04/14 08:58:19;;;;;;;5.15;3.83;;;20.50;72.40;;;;;;5043824;28;20025;-45
2022/04/14 09:00:48;;;;;;;4.30;3.00;;;20.80;71.60;;;;;;5059054;28;20042;-45
2022/04/14 09:03:15;;;;;;;4.63;2.55;;;21.30;72.90;;;;;;5043297;28;20523;-45
2022/04/14 09:05:42;;;;;;;9.00;3.00;;;;;;;;;;5043062;28;20021;-44
2022/04/14 09:08:08;;;;;;;5.25;2.20;;;21.30;70.00;;;;;;5045431;28;20099;-47
2022/04/14 09:10:36;;;;;;;3.38;2.22;;;21.10;67.90;;;;;;5054085;28;20481;-48
2022/04/14 09:13:02;;;;;;;7.32;2.90;;;21.60;67.20;;;;;;5039963;28;20461;-45
2022/04/14 09:15:27;;;;;;;3.13;2.53;;;22.10;68.00;;;;;;5036594;28;20036;-46
2022/04/14 09:17:54;;;;;;;4.90;2.42;;;;;;;;;;5035197;28;20514;-45
2022/04/14 09:20:28;;;;;;;4.53;2.70;;;;;;;;;;5039416;28;20050;-46
2022/04/14 09:23:15;;;;;;;5.03;3.45;;;23.00;67.30;;;;;;5025752;28;20044;-47
2022/04/14 09:25:42;;;;;;;3.63;2.83;;;23.20;66.90;;;;;;5028217;28;20029;-47
2022/04/14 09:28:12;;;;;;;5.80;2.85;;;22.90;64.90;;;;;;5041093;28;20511;-47
2022/04/14 09:30:40;;;;;;;6.68;3.63;;;23.00;66.80;;;;;;5027101;28;20112;-47
2022/04/14 09:33:14;;;;;;;6.03;4.78;;;22.90;65.70;;;;;;5043480;28;20124;-46
2022/04/14 09:35:40;;;;;;;6.95;4.60;;;;;;;;;;5049521;28;20475;-47
2022/04/14 09:38:13;;;;;;;4.47;3.25;;;23.60;64.60;;;;;;5047021;28;20079;-46
2022/04/14 09:40:40;;;;;;;9.38;3.67;;;23.80;65.70;;;;;;5047629;28;20288;-46
2022/04/14 09:43:12;;;;;;;6.70;3.92;;;;;;;;;;5028272;28;20075;-47
2022/04/14 09:45:39;;;;;;;5.75;3.00;;;;;;;;;;5047678;28;20040;-46
2022/04/14 09:48:14;;;;;;;5.28;2.97;;;;;;;;;;5049050;28;20041;-47
2022/04/14 09:50:43;;;;;;;4.07;3.20;;;;;;;;;;5047361;28;20040;-45
2022/04/14 09:53:16;;;;;;;5.00;3.25;;;24.80;64.00;;;;;;5046850;28;20041;-46
2022/04/14 09:55:50;;;;;;;5.38;3.50;;;24.80;64.00;;;;;;5046090;28;20037;-47
2022/04/14 09:58:16;;;;;;;5.20;3.35;;;24.30;61.90;;;;;;5048034;28;20021;-47
2022/04/14 10:00:53;;;;;;;6.28;3.30;;;24.50;63.30;;;;;;5048375;28;20386;-45
2022/04/14 10:03:20;;;;;;;5.38;3.22;;;24.20;62.10;;;;;;5049315;28;20029;-47
2022/04/14 10:05:47;;;;;;;6.80;3.00;;;23.80;62.10;;;;;;5041675;28;20037;-47
2022/04/14 10:08:14;;;;;;;6.25;3.10;;;23.60;61.80;;;;;;5031377;28;20045;-47
2022/04/14 10:10:42;;;;;;;8.32;3.35;;;23.60;63.50;;;;;;5028451;28;20025;-46
2022/04/14 10:13:18;;;;;;;3.58;2.72;;;24.10;64.40;;;;;;5030650;28;20104;-46
2022/04/14 10:15:46;;;;;;;4.82;3.33;;;24.60;62.80;;;;;;5027981;28;20171;-46
2022/04/14 10:18:16;;;;;;;3.75;2.72;;;24.50;62.10;;;;;;5030485;28;20042;-46
2022/04/14 10:20:45;;;;;;;4.72;2.90;;;24.60;62.40;;;;;;5031087;28;20476;-46
2022/04/14 10:23:13;;;;;;;5.55;3.30;;;24.30;61.30;;;;;;5031042;28;20036;-45
2022/04/14 10:25:39;;;;;;;6.57;3.45;;;;;;;;;;5027745;28;20037;-46
2022/04/14 10:28:06;;;;;;;8.23;3.47;;;;;;;;;;5032515;28;20480;-45
2022/04/14 10:30:33;;;;;;;6.43;3.40;;;;;;;;;;5026886;28;20025;-45
2022/04/14 10:32:59;;;;;;;2.90;2.55;;;25.20;82.50;;;;;;5028150;28;20026;-45
2022/04/14 10:35:28;;;;;;;5.50;2.90;;;;;;;;;;5044415;28;20385;-45
2022/04/14 10:37:57;;;;;;;6.45;2.88;;;25.00;60.70;;;;;;5031909;28;20025;-45
2022/04/14 10:40:23;;;;;;;5.45;2.95;;;24.80;77.50;;;;;;5029074;28;20124;-45
2022/04/14 10:42:51;;;;;;;5.22;3.05;;;;;;;;;;5030051;28;20064;-45
2022/04/14 10:45:22;;;;;;;5.65;3.10;;;;;;;;;;5030840;28;20412;-45
2022/04/14 10:47:53;;;;;;;4.05;2.63;;;;;;;;;;5030223;28;20034;-49
2022/04/14 10:50:29;;;;;;;8.33;5.23;;;;;;;;;;5030644;28;20022;-44
2022/04/14 10:53:20;;;;;;;6.35;3.08;;;25.70;60.00;;;;;;5022540;28;20030;-48
2022/04/14 10:55:48;;;;;;;7.05;2.85;;;25.60;58.80;;;;;;5026067;28;20358;-50
2022/04/14 10:58:26;;;;;;;6.15;3.25;;;;;;;;;;5040919;28;20037;-47
2022/04/14 11:00:54;;;;;;;4.00;2.80;;;;;;;;;;5029072;28;20025;-49
2022/04/14 11:03:20;;;;;;;4.22;2.60;;;26.50;58.50;;;;;;5029462;28;20033;-50
2022/04/14 11:05:48;;;;;;;4.70;2.33;;;25.90;64.80;;;;;;5027467;28;20022;-51
2022/04/14 11:08:24;;;;;;;4.30;2.08;;;25.40;55.90;;;;;;5030284;28;20029;-50
2022/04/14 11:11:02;;;;;;;4.00;2.60;;;;;;;;;;5026511;28;20124;-54
2022/04/14 11:13:50;;;;;;;4.05;2.03;;;25.90;71.20;;;;;;5024151;28;20048;-50
2022/04/14 11:16:35;;;;;;;3.20;2.25;;;;;;;;;;5042759;28;20112;-48
2022/04/14 11:19:24;;;;;;;5.18;2.80;;;;;;;;;;5059918;28;20145;-47
2022/04/14 11:22:13;;;;;;;7.20;2.45;;;26.30;90.70;;;;;;5029778;28;20535;-50
2022/04/14 11:24:43;;;;;;;8.23;3.00;;;;;;;;;;5024786;28;20038;-50
2022/04/14 11:27:18;;;;;;;9.70;3.80;;;26.20;92.60;;;;;;5039961;28;20052;-51
2022/04/14 11:29:46;;;;;;;6.72;4.45;;;25.60;57.30;;;;;;5028694;28;20366;-50
2022/04/14 11:32:15;;;;;;;6.03;3.42;;;;;;;;;;5028706;28;20358;-51
2022/04/14 11:34:42;;;;;;;3.83;2.83;;;;;;;;;;5022416;28;20112;-50
2022/04/14 11:37:27;;;;;;;4.97;2.70;;;;;;;;;;5021815;28;20054;-52
2022/04/14 11:40:12;;;;;;;5.40;2.60;;;;;;;;;;5019317;28;20048;-52
2022/04/14 11:42:38;;;;;;;8.00;3.03;;;26.50;91.50;;;;;;5018837;28;20561;-51
2022/04/14 11:45:04;;;;;;;9.68;5.85;;;25.60;57.10;;;;;;5021578;28;20104;-50
2022/04/14 11:47:31;;;;;;;6.85;4.75;;;25.60;56.40;;;;;;5021564;28;20048;-50
2022/04/14 11:49:57;;;;;;;5.53;3.00;;;25.50;57.40;;;;;;5020410;28;20025;-51
2022/04/14 11:52:23;;;;;;;4.65;2.92;;;;;;;;;;5018054;28;20040;-50
2022/04/14 11:54:49;;;;;;;5.38;2.72;;;;;;;;;;5020624;28;20049;-50
2022/04/14 11:57:19;;;;;;;3.70;2.92;;;;;;;;;;5020025;28;20465;-57
2022/04/14 11:59:47;;;;;;;4.05;2.95;;;27.00;58.00;;;;;;5042389;28;20041;-56
2022/04/14 12:02:18;;;;;;;6.07;3.08;;;26.90;57.00;;;;;;5025229;28;20717;-54
2022/04/14 12:04:49;;;;;;;4.70;3.05;;;26.70;57.10;;;;;;5020094;28;20551;-53
2022/04/14 12:07:16;;;;;;;7.97;4.13;;;26.10;57.20;;;;;;5015418;28;20088;-56
2022/04/14 12:09:42;;;;;;;5.53;3.08;;;26.30;58.00;;;;;;5014858;28;20332;-59
2022/04/14 12:12:17;;;;;;;7.28;3.20;;;25.60;58.00;;;;;;5021955;28;20080;-61
2022/04/14 12:14:52;;;;;;;6.13;3.55;;;;;;;;;;5024125;28;20388;-50
2022/04/14 12:17:23;;;;;;;9.02;3.40;;;26.60;63.70;;;;;;5020893;28;20049;-51
2022/04/14 12:19:53;;;;;;;4.82;2.80;;;;;;;;;;5022944;28;20052;-51
2022/04/14 12:22:19;;;;;;;4.72;2.60;;;;;;;;;;5024361;28;20049;-53
2022/04/14 12:24:49;;;;;;;4.50;2.70;;;;;;;;;;5027042;28;20112;-59
2022/04/14 12:27:16;;;;;;;5.63;2.97;;;;;;;;;;5020716;28;20433;-53
2022/04/14 12:29:43;;;;;;;6.47;3.05;;;;;;;;;;5022712;28;20091;-49
2022/04/14 12:32:10;;;;;;;4.05;2.72;;;;;;;;;;5021500;28;20027;-52
2022/04/14 12:34:41;;;;;;;5.03;2.33;;;27.00;56.40;;;;;;4994240;28;20038;-52
2022/04/14 12:37:08;;;;;;;6.27;2.87;;;27.00;56.40;;;;;;5031176;28;20362;-56
2022/04/14 12:39:34;;;;;;;5.50;2.85;;;27.00;58.60;;;;;;5038132;28;20312;-54
2022/04/14 12:42:01;;;;;;;7.20;2.72;;;27.20;57.30;;;;;;5034006;28;20053;-56
2022/04/14 12:44:26;;;;;;;6.15;2.97;;;26.90;56.60;;;;;;5072337;28;20044;-56
2022/04/14 12:46:52;;;;;;;7.28;3.00;;;;;;;;;;5025849;28;20026;-50
2022/04/14 12:49:21;;;;;;;3.78;2.90;;;;;;;;;;5024030;28;20034;-55
2022/04/14 12:51:55;;;;;;;4.65;3.03;;;27.60;57.00;;;;;;5029559;28;20040;-51
2022/04/14 12:54:23;;;;;;;5.22;2.70;;;26.70;56.50;;;;;;5026950;28;20481;-51
2022/04/14 12:57:07;;;;;;;5.40;3.13;;;26.60;59.20;;;;;;5030186;28;20037;-50
2022/04/14 12:59:37;;;;;;;4.88;2.60;;;26.90;56.50;;;;;;5024546;28;20511;-56
2022/04/14 13:02:02;;;;;;;4.80;2.85;;;26.50;57.00;;;;;;5025474;28;20033;-55
2022/04/14 13:04:35;;;;;;;8.18;3.30;;;26.30;56.90;;;;;;5029686;28;20035;-55
2022/04/14 13:07:04;;;;;;;5.18;2.78;;;26.60;57.50;;;;;;5032834;28;20061;-55
2022/04/14 13:09:31;;;;;;;4.22;2.92;;;26.70;57.70;;;;;;5012548;28;20045;-54
2022/04/14 13:11:57;;;;;;;6.45;2.80;;;26.40;57.80;;;;;;5045730;28;20512;-52
2022/04/14 13:14:25;;;;;;;4.07;2.88;;;26.50;58.40;;;;;;5042740;28;20065;-52
2022/04/14 13:16:59;;;;;;;4.13;2.50;;;26.40;56.60;;;;;;5012612;28;20051;-52
2022/04/14 13:19:25;;;;;;;4.00;2.60;;;26.60;56.40;;;;;;5013984;28;20128;-57